sensor_id;sensor_type;location;lat;lon;timestamp;pressure;altitude;pressure_sealevel;temperature;humidity
5753;BME280;2901;42.140;24.760;2022-11-22T00:00:49;98841.88;;;9.11;93.23
5753;BME280;2901;42.140;24.760;2022-11-22T00:03:14;98848.72;;;9.12;92.82
5753;BME280;2901;42.140;24.760;2022-11-22T00:05:40;98841.94;;;9.04;93.00
5753;BME280;2901;42.140;24.760;2022-11-22T00:08:05;98842.84;;;9.00;93.55
5753;BME280;2901;42.140;24.760;2022-11-22T00:10:31;98851.50;;;8.96;93.46
5753;BME280;2901;42.140;24.760;2022-11-22T00:12:57;98852.38;;;8.93;94.07
5753;BME280;2901;42.140;24.760;2022-11-22T00:15:22;98840.53;;;8.75;94.03
5753;BME280;2901;42.140;24.760;2022-11-22T00:17:47;98845.66;;;8.77;93.92
5753;BME280;2901;42.140;24.760;2022-11-22T00:20:13;98844.00;;;8.70;94.23
5753;BME280;2901;42.140;24.760;2022-11-22T00:22:38;98847.50;;;8.66;94.35
5753;BME280;2901;42.140;24.760;2022-11-22T00:25:05;98853.63;;;8.56;94.17
5753;BME280;2901;42.140;24.760;2022-11-22T00:27:31;98839.00;;;8.53;94.89
5753;BME280;2901;42.140;24.760;2022-11-22T00:29:56;98846.75;;;8.52;94.87
5753;BME280;2901;42.140;24.760;2022-11-22T00:32:21;98842.50;;;8.48;94.87
5753;BME280;2901;42.140;24.760;2022-11-22T00:34:47;98841.63;;;8.49;94.98
5753;BME280;2901;42.140;24.760;2022-11-22T00:37:12;98846.88;;;8.40;95.17
5753;BME280;2901;42.140;24.760;2022-11-22T00:39:37;98857.16;;;8.43;95.53
5753;BME280;2901;42.140;24.760;2022-11-22T00:42:03;98848.59;;;8.38;95.24
5753;BME280;2901;42.140;24.760;2022-11-22T00:44:28;98864.03;;;8.41;95.29
5753;BME280;2901;42.140;24.760;2022-11-22T00:46:54;98865.78;;;8.37;95.01
5753;BME280;2901;42.140;24.760;2022-11-22T00:49:20;98858.94;;;8.34;94.48
5753;BME280;2901;42.140;24.760;2022-11-22T00:51:45;98869.25;;;8.34;94.46
5753;BME280;2901;42.140;24.760;2022-11-22T00:54:10;98878.75;;;8.31;94.56
5753;BME280;2901;42.140;24.760;2022-11-22T00:56:36;98870.13;;;8.27;94.91
5753;BME280;2901;42.140;24.760;2022-11-22T00:59:01;98879.59;;;8.27;94.47
5753;BME280;2901;42.140;24.760;2022-11-22T01:01:27;98880.53;;;8.20;94.27
5753;BME280;2901;42.140;24.760;2022-11-22T01:03:52;98884.81;;;8.18;93.77
5753;BME280;2901;42.140;24.760;2022-11-22T01:06:18;98885.72;;;8.12;93.87
5753;BME280;2901;42.140;24.760;2022-11-22T01:08:43;98876.28;;;8.11;93.87
5753;BME280;2901;42.140;24.760;2022-11-22T01:11:09;98886.56;;;8.14;93.20
5753;BME280;2901;42.140;24.760;2022-11-22T01:13:35;98890.03;;;8.13;93.04
5753;BME280;2901;42.140;24.760;2022-11-22T01:16:06;98879.69;;;8.10;93.04
5753;BME280;2901;42.140;24.760;2022-11-22T01:18:33;98880.59;;;8.09;94.07
5753;BME280;2901;42.140;24.760;2022-11-22T01:20:58;98885.75;;;8.05;93.90
5753;BME280;2901;42.140;24.760;2022-11-22T01:23:24;98893.50;;;8.00;94.74
5753;BME280;2901;42.140;24.760;2022-11-22T01:25:50;98891.84;;;7.95;95.40
5753;BME280;2901;42.140;24.760;2022-11-22T01:28:16;98891.03;;;7.85;95.88
5753;BME280;2901;42.140;24.760;2022-11-22T01:30:42;98900.53;;;7.80;95.78
5753;BME280;2901;42.140;24.760;2022-11-22T01:33:08;98890.19;;;7.81;96.19
5753;BME280;2901;42.140;24.760;2022-11-22T01:35:34;98891.06;;;7.79;96.04
5753;BME280;2901;42.140;24.760;2022-11-22T01:37:59;98885.06;;;7.78;96.76
5753;BME280;2901;42.140;24.760;2022-11-22T01:40:25;98893.66;;;7.79;95.74
5753;BME280;2901;42.140;24.760;2022-11-22T01:42:54;98888.50;;;7.79;95.84
5753;BME280;2901;42.140;24.760;2022-11-22T01:45:38;98883.31;;;7.85;95.15
5753;BME280;2901;42.140;24.760;2022-11-22T01:50:39;98887.63;;;7.83;95.46
5753;BME280;2901;42.140;24.760;2022-11-22T01:53:17;98883.34;;;7.79;95.72
5753;BME280;2901;42.140;24.760;2022-11-22T01:55:44;98881.66;;;7.73;95.99
5753;BME280;2901;42.140;24.760;2022-11-22T01:58:11;98885.09;;;7.75;95.94
5753;BME280;2901;42.140;24.760;2022-11-22T02:00:38;98886.84;;;7.70;95.53
5753;BME280;2901;42.140;24.760;2022-11-22T02:03:07;98886.81;;;7.72;95.76
5753;BME280;2901;42.140;24.760;2022-11-22T02:05:34;98879.09;;;7.70;96.37
5753;BME280;2901;42.140;24.760;2022-11-22T02:08:06;98881.66;;;7.73;95.97
5753;BME280;2901;42.140;24.760;2022-11-22T02:10:36;98891.13;;;7.70;96.07
5753;BME280;2901;42.140;24.760;2022-11-22T02:13:05;98889.41;;;7.69;96.37
5753;BME280;2901;42.140;24.760;2022-11-22T02:15:32;98892.00;;;7.66;96.42
5753;BME280;2901;42.140;24.760;2022-11-22T02:17:59;98887.72;;;7.66;96.42
5753;BME280;2901;42.140;24.760;2022-11-22T02:20:24;98901.47;;;7.64;96.60
5753;BME280;2901;42.140;24.760;2022-11-22T02:23:06;98897.19;;;7.60;96.93
5753;BME280;2901;42.140;24.760;2022-11-22T02:28:05;98898.91;;;7.55;96.39
5753;BME280;2901;42.140;24.760;2022-11-22T02:30:31;98909.25;;;7.49;96.71
5753;BME280;2901;42.140;24.760;2022-11-22T02:32:56;98905.78;;;7.51;96.78
5753;BME280;2901;42.140;24.760;2022-11-22T02:35:24;98913.53;;;7.53;97.06
5753;BME280;2901;42.140;24.760;2022-11-22T02:37:54;98915.25;;;7.54;96.55
5753;BME280;2901;42.140;24.760;2022-11-22T02:40:21;98911.81;;;7.50;97.00
5753;BME280;2901;42.140;24.760;2022-11-22T02:42:51;98911.78;;;7.55;95.92
5753;BME280;2901;42.140;24.760;2022-11-22T02:45:17;98917.81;;;7.54;96.29
5753;BME280;2901;42.140;24.760;2022-11-22T02:47:42;98910.94;;;7.53;96.43
5753;BME280;2901;42.140;24.760;2022-11-22T02:50:08;98897.19;;;7.57;95.84
5753;BME280;2901;42.140;24.760;2022-11-22T02:52:33;98909.19;;;7.58;95.44
5753;BME280;2901;42.140;24.760;2022-11-22T02:54:59;98912.63;;;7.63;96.14
5753;BME280;2901;42.140;24.760;2022-11-22T02:57:24;98916.91;;;7.67;95.44
5753;BME280;2901;42.140;24.760;2022-11-22T02:59:49;98915.16;;;7.67;95.45
5753;BME280;2901;42.140;24.760;2022-11-22T03:02:15;98927.22;;;7.70;95.78
5753;BME280;2901;42.140;24.760;2022-11-22T03:04:40;98927.22;;;7.67;95.63
5753;BME280;2901;42.140;24.760;2022-11-22T03:07:05;98930.66;;;7.61;96.09
5753;BME280;2901;42.140;24.760;2022-11-22T03:09:31;98928.97;;;7.59;96.45
5753;BME280;2901;42.140;24.760;2022-11-22T03:11:57;98932.38;;;7.58;97.40
5753;BME280;2901;42.140;24.760;2022-11-22T03:14:22;98926.38;;;7.62;96.42
5753;BME280;2901;42.140;24.760;2022-11-22T03:16:48;98925.53;;;7.60;96.79
5753;BME280;2901;42.140;24.760;2022-11-22T03:19:14;98927.25;;;7.55;96.87
5753;BME280;2901;42.140;24.760;2022-11-22T03:21:40;98930.69;;;7.52;97.06
5753;BME280;2901;42.140;24.760;2022-11-22T03:24:07;98930.69;;;7.48;96.91
5753;BME280;2901;42.140;24.760;2022-11-22T03:26:33;98923.88;;;7.41;97.32
5753;BME280;2901;42.140;24.760;2022-11-22T03:28:58;98914.47;;;7.34;97.60
5753;BME280;2901;42.140;24.760;2022-11-22T03:31:24;98914.44;;;7.37;98.09
5753;BME280;2901;42.140;24.760;2022-11-22T03:33:50;98924.75;;;7.34;97.57
5753;BME280;2901;42.140;24.760;2022-11-22T03:36:15;98922.16;;;7.32;97.98
5753;BME280;2901;42.140;24.760;2022-11-22T03:38:41;98924.75;;;7.29;97.61
5753;BME280;2901;42.140;24.760;2022-11-22T03:41:06;98934.22;;;7.27;98.63
5753;BME280;2901;42.140;24.760;2022-11-22T03:43:31;98932.50;;;7.23;98.73
5753;BME280;2901;42.140;24.760;2022-11-22T03:45:57;98938.53;;;7.20;98.49
5753;BME280;2901;42.140;24.760;2022-11-22T03:48:22;98935.97;;;7.14;99.33
5753;BME280;2901;42.140;24.760;2022-11-22T03:50:48;98940.25;;;7.09;99.19
5753;BME280;2901;42.140;24.760;2022-11-22T03:53:13;98935.97;;;7.02;99.87
5753;BME280;2901;42.140;24.760;2022-11-22T03:55:38;98937.69;;;7.00;99.78
5753;BME280;2901;42.140;24.760;2022-11-22T03:58:04;98929.97;;;6.93;99.78
5753;BME280;2901;42.140;24.760;2022-11-22T04:00:30;98930.00;;;6.88;100.00
5753;BME280;2901;42.140;24.760;2022-11-22T04:02:56;98931.72;;;6.88;100.00
5753;BME280;2901;42.140;24.760;2022-11-22T04:05:21;98931.69;;;6.83;100.00
5753;BME280;2901;42.140;24.760;2022-11-22T04:07:47;98937.72;;;6.87;100.00
5753;BME280;2901;42.140;24.760;2022-11-22T04:10:13;98937.72;;;6.88;100.00
5753;BME280;2901;42.140;24.760;2022-11-22T04:12:38;98945.44;;;6.91;100.00
5753;BME280;2901;42.140;24.760;2022-11-22T04:15:04;98941.13;;;6.90;100.00
5753;BME280;2901;42.140;24.760;2022-11-22T04:17:42;98950.56;;;6.99;100.00
5753;BME280;2901;42.140;24.760;2022-11-22T04:23:20;98947.97;;;7.06;100.00
5753;BME280;2901;42.140;24.760;2022-11-22T04:25:51;98940.25;;;7.11;100.00
5753;BME280;2901;42.140;24.760;2022-11-22T04:28:19;98940.25;;;7.14;100.00
5753;BME280;2901;42.140;24.760;2022-11-22T04:30:45;98942.78;;;7.24;100.00
5753;BME280;2901;42.140;24.760;2022-11-22T04:33:29;98941.06;;;7.36;98.52
5753;BME280;2901;42.140;24.760;2022-11-22T04:35:55;98938.44;;;7.45;97.88
5753;BME280;2901;42.140;24.760;2022-11-22T04:38:21;98942.72;;;7.52;97.71
5753;BME280;2901;42.140;24.760;2022-11-22T04:40:46;98953.81;;;7.64;95.99
5753;BME280;2901;42.140;24.760;2022-11-22T04:43:28;98963.28;;;7.70;95.77
5753;BME280;2901;42.140;24.760;2022-11-22T04:46:13;98964.13;;;7.73;95.11
5753;BME280;2901;42.140;24.760;2022-11-22T04:48:39;98976.13;;;7.79;95.14
5753;BME280;2901;42.140;24.760;2022-11-22T04:51:05;98977.00;;;7.72;95.89
5753;BME280;2901;42.140;24.760;2022-11-22T04:53:50;98965.03;;;7.59;97.32
5753;BME280;2901;42.140;24.760;2022-11-22T04:56:16;98971.06;;;7.49;98.34
5753;BME280;2901;42.140;24.760;2022-11-22T04:58:41;98969.38;;;7.43;98.14
5753;BME280;2901;42.140;24.760;2022-11-22T05:01:07;98973.69;;;7.37;98.93
5753;BME280;2901;42.140;24.760;2022-11-22T05:03:32;98981.44;;;7.27;98.76
5753;BME280;2901;42.140;24.760;2022-11-22T05:06:02;98992.59;;;7.20;100.00
5753;BME280;2901;42.140;24.760;2022-11-22T05:08:28;98999.44;;;7.18;99.99
5753;BME280;2901;42.140;24.760;2022-11-22T05:10:54;99001.19;;;7.10;100.00
5753;BME280;2901;42.140;24.760;2022-11-22T05:15:47;99020.06;;;7.06;100.00
5753;BME280;2901;42.140;24.760;2022-11-22T05:18:16;99021.78;;;7.10;100.00
5753;BME280;2901;42.140;24.760;2022-11-22T05:20:41;99025.22;;;7.08;100.00
5753;BME280;2901;42.140;24.760;2022-11-22T05:23:07;99026.03;;;7.08;100.00
5753;BME280;2901;42.140;24.760;2022-11-22T05:25:51;99038.06;;;7.12;100.00
5753;BME280;2901;42.140;24.760;2022-11-22T05:28:16;99034.63;;;7.12;100.00
5753;BME280;2901;42.140;24.760;2022-11-22T05:30:42;99039.78;;;7.12;100.00
5753;BME280;2901;42.140;24.760;2022-11-22T05:33:07;99047.53;;;7.10;100.00
5753;BME280;2901;42.140;24.760;2022-11-22T05:35:33;99048.38;;;7.14;100.00
5753;BME280;2901;42.140;24.760;2022-11-22T05:37:59;99050.94;;;7.18;100.00
5753;BME280;2901;42.140;24.760;2022-11-22T05:40:25;99048.38;;;7.20;99.61
5753;BME280;2901;42.140;24.760;2022-11-22T05:42:50;99060.38;;;7.19;99.62
5753;BME280;2901;42.140;24.760;2022-11-22T05:45:15;99057.81;;;7.22;100.00
5753;BME280;2901;42.140;24.760;2022-11-22T05:47:41;99066.38;;;7.21;99.37
5753;BME280;2901;42.140;24.760;2022-11-22T05:50:06;99074.97;;;7.23;99.73
5753;BME280;2901;42.140;24.760;2022-11-22T05:52:32;99074.13;;;7.26;99.29
5753;BME280;2901;42.140;24.760;2022-11-22T05:54:58;99068.97;;;7.29;99.05
5753;BME280;2901;42.140;24.760;2022-11-22T05:57:23;99073.25;;;7.35;98.41
5753;BME280;2901;42.140;24.760;2022-11-22T05:59:49;99077.53;;;7.39;98.54
5753;BME280;2901;42.140;24.760;2022-11-22T06:02:14;99077.53;;;7.42;97.92
5753;BME280;2901;42.140;24.760;2022-11-22T06:04:39;99075.81;;;7.48;97.80
5753;BME280;2901;42.140;24.760;2022-11-22T06:07:05;99069.81;;;7.60;97.84
5753;BME280;2901;42.140;24.760;2022-11-22T06:09:30;99069.75;;;7.67;96.13
5753;BME280;2901;42.140;24.760;2022-11-22T06:11:55;99075.75;;;7.84;96.08
5753;BME280;2901;42.140;24.760;2022-11-22T06:14:21;99074.88;;;7.93;94.24
5753;BME280;2901;42.140;24.760;2022-11-22T06:16:46;99071.41;;;8.03;94.38
5753;BME280;2901;42.140;24.760;2022-11-22T06:19:11;99075.69;;;8.07;93.77
5753;BME280;2901;42.140;24.760;2022-11-22T06:21:37;99055.06;;;8.07;93.27
5753;BME280;2901;42.140;24.760;2022-11-22T06:24:03;99074.78;;;8.26;93.26
5753;BME280;2901;42.140;24.760;2022-11-22T06:26:28;99065.31;;;8.31;92.18
5753;BME280;2901;42.140;24.760;2022-11-22T06:28:53;99072.13;;;8.40;92.18
5753;BME280;2901;42.140;24.760;2022-11-22T06:31:24;99070.41;;;8.45;91.34
5753;BME280;2901;42.140;24.760;2022-11-22T06:33:52;99060.06;;;8.47;91.46
5753;BME280;2901;42.140;24.760;2022-11-22T06:36:19;99074.66;;;8.51;91.32
5753;BME280;2901;42.140;24.760;2022-11-22T06:38:45;99066.03;;;8.58;91.57
5753;BME280;2901;42.140;24.760;2022-11-22T06:41:13;99088.28;;;8.78;91.11
5753;BME280;2901;42.140;24.760;2022-11-22T06:43:41;99095.97;;;8.88;90.48
5753;BME280;2901;42.140;24.760;2022-11-22T06:46:08;99089.94;;;8.89;89.80
5753;BME280;2901;42.140;24.760;2022-11-22T06:48:36;99118.22;;;9.08;90.42
5753;BME280;2901;42.140;24.760;2022-11-22T06:51:07;99116.41;;;9.19;89.79
5753;BME280;2901;42.140;24.760;2022-11-22T06:53:34;99112.00;;;9.35;89.70
5753;BME280;2901;42.140;24.760;2022-11-22T06:56:01;99105.88;;;9.45;89.47
5753;BME280;2901;42.140;24.760;2022-11-22T06:58:26;99095.41;;;9.59;88.23
5753;BME280;2901;42.140;24.760;2022-11-22T07:00:52;99098.75;;;9.74;87.46
5753;BME280;2901;42.140;24.760;2022-11-22T07:03:17;99114.19;;;9.79;87.05
5753;BME280;2901;42.140;24.760;2022-11-22T07:05:50;99126.13;;;9.94;86.20
5753;BME280;2901;42.140;24.760;2022-11-22T07:08:15;99123.47;;;9.98;85.35
5753;BME280;2901;42.140;24.760;2022-11-22T07:10:41;99107.78;;;10.19;85.61
5753;BME280;2901;42.140;24.760;2022-11-22T07:13:06;99118.94;;;10.21;83.68
5753;BME280;2901;42.140;24.760;2022-11-22T07:15:31;99112.94;;;10.18;83.98
5753;BME280;2901;42.140;24.760;2022-11-22T07:17:57;99121.56;;;10.20;83.35
5753;BME280;2901;42.140;24.760;2022-11-22T07:20:23;99123.28;;;10.19;83.61
5753;BME280;2901;42.140;24.760;2022-11-22T07:22:48;99115.44;;;10.27;83.36
5753;BME280;2901;42.140;24.760;2022-11-22T07:25:14;99111.94;;;10.34;82.85
5753;BME280;2901;42.140;24.760;2022-11-22T07:27:39;99125.56;;;10.45;82.56
5753;BME280;2901;42.140;24.760;2022-11-22T07:30:05;99125.50;;;10.53;81.44
5753;BME280;2901;42.140;24.760;2022-11-22T07:32:30;99115.19;;;10.48;82.29
5753;BME280;2901;42.140;24.760;2022-11-22T07:34:56;99112.56;;;10.51;81.93
5753;BME280;2901;42.140;24.760;2022-11-22T07:37:21;99109.91;;;10.56;81.30
5753;BME280;2901;42.140;24.760;2022-11-22T07:39:47;99116.63;;;10.70;81.62
5753;BME280;2901;42.140;24.760;2022-11-22T07:42:12;99113.84;;;10.84;81.00
5753;BME280;2901;42.140;24.760;2022-11-22T07:44:37;99106.75;;;10.98;80.60
5753;BME280;2901;42.140;24.760;2022-11-22T07:47:03;99098.72;;;11.13;80.25
5753;BME280;2901;42.140;24.760;2022-11-22T07:49:28;99087.41;;;11.20;78.65
5753;BME280;2901;42.140;24.760;2022-11-22T07:51:53;99096.59;;;11.39;78.31
5753;BME280;2901;42.140;24.760;2022-11-22T07:54:19;99074.91;;;11.45;78.53
5753;BME280;2901;42.140;24.760;2022-11-22T07:56:45;99091.78;;;11.72;76.99
5753;BME280;2901;42.140;24.760;2022-11-22T07:59:10;99094.19;;;11.81;75.83
5753;BME280;2901;42.140;24.760;2022-11-22T08:01:35;99088.69;;;11.98;76.44
5753;BME280;2901;42.140;24.760;2022-11-22T08:04:01;99072.88;;;12.10;75.63
5753;BME280;2901;42.140;24.760;2022-11-22T08:06:26;99077.00;;;12.21;74.13
5753;BME280;2901;42.140;24.760;2022-11-22T08:08:52;99085.94;;;12.49;73.36
5753;BME280;2901;42.140;24.760;2022-11-22T08:11:17;99072.34;;;12.77;72.89
5753;BME280;2901;42.140;24.760;2022-11-22T08:13:42;99089.19;;;12.97;70.75
5753;BME280;2901;42.140;24.760;2022-11-22T08:16:13;99085.50;;;13.09;70.20
5753;BME280;2901;42.140;24.760;2022-11-22T08:18:40;99087.00;;;13.19;69.78
5753;BME280;2901;42.140;24.760;2022-11-22T08:21:11;99090.13;;;13.33;70.53
5753;BME280;2901;42.140;24.760;2022-11-22T08:23:37;99092.72;;;13.33;69.22
5753;BME280;2901;42.140;24.760;2022-11-22T08:26:03;99088.25;;;13.38;67.74
5753;BME280;2901;42.140;24.760;2022-11-22T08:28:29;99089.06;;;13.40;68.95
5753;BME280;2901;42.140;24.760;2022-11-22T08:31:00;99078.13;;;13.63;67.25
5753;BME280;2901;42.140;24.760;2022-11-22T08:33:26;99064.59;;;13.83;67.01
5753;BME280;2901;42.140;24.760;2022-11-22T08:35:51;99062.69;;;13.88;65.70
5753;BME280;2901;42.140;24.760;2022-11-22T08:38:17;99070.03;;;14.06;65.42
5753;BME280;2901;42.140;24.760;2022-11-22T08:40:42;99045.28;;;14.21;64.53
5753;BME280;2901;42.140;24.760;2022-11-22T08:43:07;99050.06;;;14.37;63.90
5753;BME280;2901;42.140;24.760;2022-11-22T08:45:33;99040.97;;;14.52;62.85
5753;BME280;2901;42.140;24.760;2022-11-22T08:47:58;99033.72;;;14.62;62.47
5753;BME280;2901;42.140;24.760;2022-11-22T08:50:24;99039.81;;;14.61;61.31
5753;BME280;2901;42.140;24.760;2022-11-22T08:52:49;99029.88;;;14.73;61.08
5753;BME280;2901;42.140;24.760;2022-11-22T08:55:14;99026.81;;;14.88;59.56
5753;BME280;2901;42.140;24.760;2022-11-22T08:57:40;99017.72;;;15.00;58.81
5753;BME280;2901;42.140;24.760;2022-11-22T09:00:06;99009.38;;;14.89;59.53
5753;BME280;2901;42.140;24.760;2022-11-22T09:02:32;99009.03;;;14.73;60.64
5753;BME280;2901;42.140;24.760;2022-11-22T09:04:57;98998.03;;;14.64;61.93
5753;BME280;2901;42.140;24.760;2022-11-22T09:07:23;98998.66;;;14.42;62.58
5753;BME280;2901;42.140;24.760;2022-11-22T09:09:48;98980.50;;;14.41;62.61
5753;BME280;2901;42.140;24.760;2022-11-22T09:12:13;98990.25;;;14.62;61.35
5753;BME280;2901;42.140;24.760;2022-11-22T09:14:39;98988.72;;;14.83;61.60
5753;BME280;2901;42.140;24.760;2022-11-22T09:17:04;98998.38;;;14.81;61.33
5753;BME280;2901;42.140;24.760;2022-11-22T09:19:30;98998.28;;;15.10;60.41
5753;BME280;2901;42.140;24.760;2022-11-22T09:21:56;98993.97;;;15.09;60.02
5753;BME280;2901;42.140;24.760;2022-11-22T09:24:21;98981.78;;;15.10;59.40
5753;BME280;2901;42.140;24.760;2022-11-22T09:26:46;98981.78;;;15.10;58.20
5753;BME280;2901;42.140;24.760;2022-11-22T09:29:12;98990.03;;;14.96;59.15
5753;BME280;2901;42.140;24.760;2022-11-22T09:31:39;98980.81;;;14.86;60.24
5753;BME280;2901;42.140;24.760;2022-11-22T09:34:05;98972.44;;;15.02;59.77
5753;BME280;2901;42.140;24.760;2022-11-22T09:36:31;98969.50;;;14.87;60.06
5753;BME280;2901;42.140;24.760;2022-11-22T09:38:56;98959.94;;;14.86;60.76
5753;BME280;2901;42.140;24.760;2022-11-22T09:44:15;98973.38;;;15.26;59.65
5753;BME280;2901;42.140;24.760;2022-11-22T09:52:27;98993.28;;;14.76;61.50
5753;BME280;2901;42.140;24.760;2022-11-22T09:55:23;98986.66;;;14.94;61.17
5753;BME280;2901;42.140;24.760;2022-11-22T09:58:10;98994.88;;;15.08;59.93
5753;BME280;2901;42.140;24.760;2022-11-22T10:00:40;98983.41;;;15.38;59.17
5753;BME280;2901;42.140;24.760;2022-11-22T10:08:28;98967.84;;;15.62;58.27
5753;BME280;2901;42.140;24.760;2022-11-22T10:10:59;98966.19;;;15.59;59.26
5753;BME280;2901;42.140;24.760;2022-11-22T10:13:30;98969.75;;;15.56;59.79
5753;BME280;2901;42.140;24.760;2022-11-22T10:16:05;98960.63;;;15.43;59.67
5753;BME280;2901;42.140;24.760;2022-11-22T10:21:20;98946.44;;;15.26;61.08
5753;BME280;2901;42.140;24.760;2022-11-22T10:23:46;98951.09;;;15.18;61.49
5753;BME280;2901;42.140;24.760;2022-11-22T10:26:30;98951.38;;;15.08;60.35
5753;BME280;2901;42.140;24.760;2022-11-22T10:31:44;98949.63;;;15.09;60.96
5753;BME280;2901;42.140;24.760;2022-11-22T10:37:36;98951.88;;;15.20;62.21
5753;BME280;2901;42.140;24.760;2022-11-22T10:48:33;98953.84;;;15.87;61.19
5753;BME280;2901;42.140;24.760;2022-11-22T10:56:32;98944.63;;;15.54;62.52
5753;BME280;2901;42.140;24.760;2022-11-22T11:04:55;98929.31;;;15.68;61.10
5753;BME280;2901;42.140;24.760;2022-11-22T11:07:22;98921.88;;;15.81;61.55
5753;BME280;2901;42.140;24.760;2022-11-22T11:09:52;98905.91;;;15.67;60.48
5753;BME280;2901;42.140;24.760;2022-11-22T11:12:22;98910.59;;;15.57;60.81
5753;BME280;2901;42.140;24.760;2022-11-22T11:14:53;98904.28;;;15.38;61.86
5753;BME280;2901;42.140;24.760;2022-11-22T11:17:25;98889.06;;;15.26;62.00
5753;BME280;2901;42.140;24.760;2022-11-22T11:19:54;98897.06;;;15.21;62.94
5753;BME280;2901;42.140;24.760;2022-11-22T11:22:22;98904.72;;;15.26;63.27
5753;BME280;2901;42.140;24.760;2022-11-22T11:24:49;98904.06;;;15.19;63.61
5753;BME280;2901;42.140;24.760;2022-11-22T11:27:16;98885.25;;;15.11;63.86
5753;BME280;2901;42.140;24.760;2022-11-22T11:32:12;98869.16;;;15.23;64.63
5753;BME280;2901;42.140;24.760;2022-11-22T11:34:41;98862.19;;;14.99;65.52
5753;BME280;2901;42.140;24.760;2022-11-22T11:37:37;98868.56;;;14.90;65.16
5753;BME280;2901;42.140;24.760;2022-11-22T11:40:05;98864.75;;;15.00;65.42
5753;BME280;2901;42.140;24.760;2022-11-22T11:42:33;98864.91;;;14.96;65.20
5753;BME280;2901;42.140;24.760;2022-11-22T11:45:34;98869.72;;;15.08;64.36
5753;BME280;2901;42.140;24.760;2022-11-22T11:47:59;98866.63;;;14.97;64.18
5753;BME280;2901;42.140;24.760;2022-11-22T11:50:26;98865.81;;;14.95;64.50
5753;BME280;2901;42.140;24.760;2022-11-22T11:53:03;98856.81;;;15.03;65.11
5753;BME280;2901;42.140;24.760;2022-11-22T11:55:30;98856.06;;;15.00;64.22
5753;BME280;2901;42.140;24.760;2022-11-22T11:57:57;98842.09;;;14.78;64.51
5753;BME280;2901;42.140;24.760;2022-11-22T12:00:25;98843.84;;;14.77;65.06
5753;BME280;2901;42.140;24.760;2022-11-22T12:02:59;98853.94;;;14.86;65.83
5753;BME280;2901;42.140;24.760;2022-11-22T12:05:30;98842.53;;;14.89;65.61
5753;BME280;2901;42.140;24.760;2022-11-22T12:07:56;98836.50;;;14.88;66.10
5753;BME280;2901;42.140;24.760;2022-11-22T12:13:32;98841.69;;;14.64;66.94
5753;BME280;2901;42.140;24.760;2022-11-22T12:16:17;98858.94;;;14.68;68.05
5753;BME280;2901;42.140;24.760;2022-11-22T12:18:55;98867.50;;;14.71;67.85
5753;BME280;2901;42.140;24.760;2022-11-22T12:21:29;98873.47;;;14.75;68.10
5753;BME280;2901;42.140;24.760;2022-11-22T12:24:08;98865.44;;;14.81;68.09
5753;BME280;2901;42.140;24.760;2022-11-22T12:26:35;98853.28;;;14.80;68.38
5753;BME280;2901;42.140;24.760;2022-11-22T12:29:00;98854.56;;;14.68;68.26
5753;BME280;2901;42.140;24.760;2022-11-22T12:31:46;98847.88;;;14.60;68.43
5753;BME280;2901;42.140;24.760;2022-11-22T12:34:22;98842.44;;;14.67;68.45
5753;BME280;2901;42.140;24.760;2022-11-22T12:37:21;98831.56;;;14.54;69.37
5753;BME280;2901;42.140;24.760;2022-11-22T12:39:50;98820.13;;;14.32;70.34
5753;BME280;2901;42.140;24.760;2022-11-22T12:42:27;98816.88;;;14.26;70.86
5753;BME280;2901;42.140;24.760;2022-11-22T12:45:03;98818.44;;;14.30;71.01
5753;BME280;2901;42.140;24.760;2022-11-22T12:47:36;98817.25;;;14.41;71.39
5753;BME280;2901;42.140;24.760;2022-11-22T12:50:14;98801.50;;;14.44;71.41
5753;BME280;2901;42.140;24.760;2022-11-22T12:52:46;98788.59;;;14.41;71.83
5753;BME280;2901;42.140;24.760;2022-11-22T12:55:19;98788.84;;;14.34;71.73
5753;BME280;2901;42.140;24.760;2022-11-22T13:00:34;98766.66;;;14.22;72.73
5753;BME280;2901;42.140;24.760;2022-11-22T13:03:13;98773.25;;;14.32;73.08
5753;BME280;2901;42.140;24.760;2022-11-22T13:05:44;98773.31;;;14.29;72.97
5753;BME280;2901;42.140;24.760;2022-11-22T13:08:21;98761.53;;;14.19;73.65
5753;BME280;2901;42.140;24.760;2022-11-22T13:13:43;98779.34;;;14.05;74.71
5753;BME280;2901;42.140;24.760;2022-11-22T13:16:11;98781.19;;;14.01;75.16
5753;BME280;2901;42.140;24.760;2022-11-22T13:18:40;98772.19;;;14.12;75.08
5753;BME280;2901;42.140;24.760;2022-11-22T13:21:33;98768.88;;;14.07;75.00
5753;BME280;2901;42.140;24.760;2022-11-22T13:29:20;98769.25;;;13.96;75.06
5753;BME280;2901;42.140;24.760;2022-11-22T13:32:15;98769.16;;;13.97;75.65
5753;BME280;2901;42.140;24.760;2022-11-22T13:37:25;98774.25;;;14.02;75.60
5753;BME280;2901;42.140;24.760;2022-11-22T13:39:52;98775.38;;;13.93;75.84
5753;BME280;2901;42.140;24.760;2022-11-22T13:42:25;98782.75;;;14.07;75.99
5753;BME280;2901;42.140;24.760;2022-11-22T13:47:45;98799.22;;;14.08;75.25
5753;BME280;2901;42.140;24.760;2022-11-22T13:53:22;98818.19;;;14.11;75.40
5753;BME280;2901;42.140;24.760;2022-11-22T13:55:48;98824.19;;;14.13;75.13
5753;BME280;2901;42.140;24.760;2022-11-22T14:01:02;98835.03;;;14.27;75.73
5753;BME280;2901;42.140;24.760;2022-11-22T14:03:38;98830.69;;;14.28;75.07
5753;BME280;2901;42.140;24.760;2022-11-22T14:06:21;98823.94;;;14.22;74.98
5753;BME280;2901;42.140;24.760;2022-11-22T14:08:47;98827.22;;;14.27;75.03
5753;BME280;2901;42.140;24.760;2022-11-22T14:14:12;98772.44;;;14.04;75.71
5753;BME280;2901;42.140;24.760;2022-11-22T14:22:31;98752.31;;;13.83;76.17
5753;BME280;2901;42.140;24.760;2022-11-22T14:25:26;98746.28;;;13.81;76.57
5753;BME280;2901;42.140;24.760;2022-11-22T14:30:50;98737.25;;;13.65;77.53
5753;BME280;2901;42.140;24.760;2022-11-22T14:33:21;98738.34;;;13.58;76.24
5753;BME280;2901;42.140;24.760;2022-11-22T14:38:37;98736.00;;;13.50;77.40
5753;BME280;2901;42.140;24.760;2022-11-22T14:44:18;98724.09;;;13.41;78.47
5753;BME280;2901;42.140;24.760;2022-11-22T14:46:47;98723.41;;;13.36;78.90
5753;BME280;2901;42.140;24.760;2022-11-22T14:51:51;98742.72;;;13.28;79.15
5753;BME280;2901;42.140;24.760;2022-11-22T14:57:14;98755.19;;;13.17;79.40
5753;BME280;2901;42.140;24.760;2022-11-22T15:15:41;98748.75;;;12.67;83.77
5753;BME280;2901;42.140;24.760;2022-11-22T15:18:31;98760.19;;;12.61;83.97
5753;BME280;2901;42.140;24.760;2022-11-22T15:20:58;98731.81;;;12.52;84.91